Time;durP1;ratioP1;P1;durP2;ratioP2;P2;SDS_P1;SDS_P2;PMS_P1;PMS_P2;Temp;Humidity;BMP_temperature;BMP_pressure;BME280_temperature;BME280_humidity;BME280_pressure;Samples;Min_cycle;Max_cycle;Signal;HPM_P1;HPM_P2
2022/08/08 00:01:02;;;;;;;;;;;;;;;16.24;nan;101732.19;2031361;29;19923;-70
2022/08/08 00:02:07;;;;;;;;;;;;;;;16.24;nan;101730.28;2025912;29;19916;-70
2022/08/08 00:03:16;;;;;;;;;;;;;;;16.25;nan;101733.78;2033234;29;19919;-70
2022/08/08 00:04:28;;;;;;;;;;;;;;;16.24;nan;101730.28;2040842;29;19915;-70
2022/08/08 00:05:36;;;;;;;;;;;;;;;16.26;nan;101730.78;2032923;29;19915;-69
2022/08/08 00:06:58;;;;;;;;;;;;;;;16.26;nan;101725.34;2024878;29;19959;-69
2022/08/08 00:08:05;;;;;;;;;;;;;;;16.25;nan;101722.94;2003885;29;19923;-70
2022/08/08 00:09:15;;;;;;;;;;;;;;;16.25;nan;101726.47;2029883;29;19938;-69
2022/08/08 00:10:16;;;;;;;;;;;;;;;16.27;nan;101727.00;2018659;29;19915;-69
2022/08/08 00:11:26;;;;;;;;;;;;;;;16.30;nan;101726.41;2025066;29;19915;-70
2022/08/08 00:12:40;;;;;;;;;;;;;;;16.32;nan;101724.19;2025123;29;20268;-70
2022/08/08 00:13:47;;;;;;;;;;;;;;;16.30;nan;101725.56;2018478;29;19926;-69
2022/08/08 00:14:49;;;;;;;;;;;;;;;16.30;nan;101720.97;2031946;29;19915;-71
2022/08/08 00:15:58;;;;;;;;;;;;;;;16.32;nan;101728.81;2040952;29;20359;-71
2022/08/08 00:17:18;;;;;;;;;;;;;;;16.31;nan;101727.22;2028424;29;19915;-71
2022/08/08 00:18:42;;;;;;;;;;;;;;;16.30;nan;101725.56;2033645;29;19915;-72
2022/08/08 00:19:53;;;;;;;;;;;;;;;16.29;nan;101719.34;2009377;29;20288;-69
2022/08/08 00:20:56;;;;;;;;;;;;;;;16.29;nan;101730.19;2025161;29;19916;-70
2022/08/08 00:22:07;;;;;;;;;;;;;;;16.26;nan;101728.06;2033117;29;20344;-70
2022/08/08 00:23:13;;;;;;;;;;;;;;;16.28;nan;101728.59;2025034;29;19915;-70
2022/08/08 00:24:18;;;;;;;;;;;;;;;16.29;nan;101729.41;2025210;29;19919;-70
2022/08/08 00:25:23;;;;;;;;;;;;;;;16.30;nan;101726.41;2025766;29;20002;-69
2022/08/08 00:26:35;;;;;;;;;;;;;;;16.30;nan;101726.41;2032289;29;19919;-69
2022/08/08 00:27:37;;;;;;;;;;;;;;;16.31;nan;101730.72;2034529;29;19915;-69
2022/08/08 00:28:45;;;;;;;;;;;;;;;16.33;nan;101725.00;2031683;29;19922;-69
2022/08/08 00:29:53;;;;;;;;;;;;;;;16.33;nan;101720.41;2030770;29;19915;-69
2022/08/08 00:30:59;;;;;;;;;;;;;;;16.30;nan;101720.97;2031865;29;19922;-70
2022/08/08 00:32:07;;;;;;;;;;;;;;;16.30;nan;101717.44;2040701;29;19938;-69
2022/08/08 00:33:17;;;;;;;;;;;;;;;16.25;nan;101723.75;2039627;29;19915;-69
2022/08/08 00:36:02;;;;;;;;;;;;;;;16.27;nan;101721.56;2035675;29;19938;-69
2022/08/08 00:37:21;;;;;;;;;;;;;;;16.31;nan;101722.59;2040765;29;19945;-69
2022/08/08 00:38:27;;;;;;;;;;;;;;;16.31;nan;101725.31;2030436;29;20377;-68
2022/08/08 00:39:37;;;;;;;;;;;;;;;16.32;nan;101726.91;2024997;29;19915;-68
2022/08/08 00:40:47;;;;;;;;;;;;;;;16.35;nan;101722.81;2025236;29;19915;-69
2022/08/08 00:41:55;;;;;;;;;;;;;;;16.32;nan;101726.91;2025047;29;19922;-68
2022/08/08 00:42:58;;;;;;;;;;;;;;;16.29;nan;101719.34;2030866;29;19922;-69
2022/08/08 00:44:17;;;;;;;;;;;;;;;16.29;nan;101730.19;2024379;29;19915;-69
2022/08/08 00:45:45;;;;;;;;;;;;;;;16.28;nan;101725.06;2016601;29;20582;-69
2022/08/08 00:46:49;;;;;;;;;;;;;;;16.29;nan;101730.19;2016383;29;20480;-69
2022/08/08 00:47:51;;;;;;;;;;;;;;;16.31;nan;101730.72;2025764;29;19915;-69
2022/08/08 00:48:55;;;;;;;;;;;;;;;16.33;nan;101725.84;2024948;29;19967;-70
2022/08/08 00:50:17;;;;;;;;;;;;;;;16.36;nan;101727.97;2025999;29;19924;-69
2022/08/08 00:51:44;;;;;;;;;;;;;;;16.36;nan;101735.28;2017326;29;19926;-69
2022/08/08 00:52:50;;;;;;;;;;;;;;;16.34;nan;101738.31;2020621;29;19916;-69
2022/08/08 00:53:51;;;;;;;;;;;;;;;16.32;nan;101729.63;2017632;29;19919;-69
2022/08/08 00:54:57;;;;;;;;;;;;;;;16.32;nan;101734.25;2025254;29;19926;-70
2022/08/08 00:56:18;;;;;;;;;;;;;;;16.29;nan;101735.63;2025068;29;19916;-70
2022/08/08 00:57:19;;;;;;;;;;;;;;;16.29;nan;101727.50;2019862;29;19926;-70
2022/08/08 00:58:40;;;;;;;;;;;;;;;16.32;nan;101729.63;2016753;29;19916;-69
2022/08/08 01:00:00;;;;;;;;;;;;;;;16.33;nan;101723.13;2025121;29;20340;-69
2022/08/08 01:01:41;;;;;;;;;;;;;;;16.34;nan;101724.72;2027417;29;19943;-69
2022/08/08 01:02:54;;;;;;;;;;;;;;;16.37;nan;101726.88;2009155;29;20549;-70
2022/08/08 01:04:01;;;;;;;;;;;;;;;16.41;nan;101725.19;2009372;29;19915;-71
2022/08/08 01:05:16;;;;;;;;;;;;;;;16.41;nan;101727.91;1993830;29;19916;-70
2022/08/08 01:06:36;;;;;;;;;;;;;;;16.43;nan;101724.91;1997145;29;19950;-70
2022/08/08 01:07:37;;;;;;;;;;;;;;;16.43;nan;101719.47;2001585;29;19916;-69
2022/08/08 01:08:40;;;;;;;;;;;;;;;16.43;nan;101725.72;2012776;29;19916;-70
2022/08/08 01:10:00;;;;;;;;;;;;;;;16.45;nan;101722.69;2032567;29;19914;-70
2022/08/08 01:11:19;;;;;;;;;;;;;;;16.48;nan;101718.59;2032654;29;19918;-70
2022/08/08 01:12:43;;;;;;;;;;;;;;;16.49;nan;101725.63;2040460;29;19919;-71
2022/08/08 01:13:54;;;;;;;;;;;;;;;16.47;nan;101722.41;2032505;29;19927;-70
2022/08/08 01:15:07;;;;;;;;;;;;;;;16.49;nan;101725.63;2026728;29;19915;-69
2022/08/08 01:16:14;;;;;;;;;;;;;;;16.50;nan;101728.06;2034501;29;19915;-69
2022/08/08 01:17:18;;;;;;;;;;;;;;;16.49;nan;101728.34;2011905;29;19923;-70
2022/08/08 01:18:35;;;;;;;;;;;;;;;16.50;nan;101724.56;2011701;29;19923;-71
2022/08/08 01:19:43;;;;;;;;;;;;;;;16.52;nan;101725.06;2024556;29;19922;-70
2022/08/08 01:20:55;;;;;;;;;;;;;;;16.53;nan;101724.78;2026048;29;20351;-70
2022/08/08 01:22:14;;;;;;;;;;;;;;;16.54;nan;101722.88;2023108;29;19915;-70
2022/08/08 01:23:36;;;;;;;;;;;;;;;16.53;nan;101724.78;2020991;29;20422;-70
2022/08/08 01:24:37;;;;;;;;;;;;;;;16.52;nan;101728.59;2032724;29;19915;-70
2022/08/08 01:25:56;;;;;;;;;;;;;;;16.54;nan;101726.38;2033917;29;20409;-71
2022/08/08 01:27:13;;;;;;;;;;;;;;;16.54;nan;101731.00;2032798;29;19915;-70
2022/08/08 01:28:33;;;;;;;;;;;;;;;16.55;nan;101724.47;2025502;29;19918;-70
2022/08/08 01:29:40;;;;;;;;;;;;;;;16.51;nan;101726.16;2025341;29;19923;-69
2022/08/08 01:31:14;;;;;;;;;;;;;;;16.53;nan;101718.56;2025286;29;20146;-70
2022/08/08 01:32:24;;;;;;;;;;;;;;;16.51;nan;101726.16;2024898;29;19915;-70
2022/08/08 01:33:28;;;;;;;;;;;;;;;16.53;nan;101716.63;2026194;29;19915;-71
2022/08/08 01:34:48;;;;;;;;;;;;;;;16.53;nan;101724.78;2031358;29;19927;-71
2022/08/08 01:35:58;;;;;;;;;;;;;;;16.56;nan;101717.97;2024981;29;19915;-70
2022/08/08 01:37:11;;;;;;;;;;;;;;;16.56;nan;101718.78;2024864;29;20287;-70
2022/08/08 01:38:17;;;;;;;;;;;;;;;16.59;nan;101722.81;2024449;29;19919;-70
2022/08/08 01:39:31;;;;;;;;;;;;;;;16.58;nan;101723.91;2026336;29;19919;-71
2022/08/08 01:40:40;;;;;;;;;;;;;;;16.59;nan;101717.38;2024529;29;20481;-69
2022/08/08 01:41:45;;;;;;;;;;;;;;;16.57;nan;101725.00;2026294;29;19916;-70
2022/08/08 01:42:47;;;;;;;;;;;;;;;16.58;nan;101723.91;2025195;29;19926;-70
2022/08/08 01:44:08;;;;;;;;;;;;;;;16.59;nan;101722.81;2024546;29;19922;-70
2022/08/08 01:45:32;;;;;;;;;;;;;;;16.56;nan;101724.19;2019199;29;19922;-70
2022/08/08 01:46:43;;;;;;;;;;;;;;;16.56;nan;101726.91;2020602;29;20311;-70
2022/08/08 01:48:06;;;;;;;;;;;;;;;16.56;nan;101717.97;2020825;29;19924;-70
2022/08/08 01:49:12;;;;;;;;;;;;;;;16.54;nan;101717.44;2020629;29;19963;-71
2022/08/08 01:50:28;;;;;;;;;;;;;;;16.52;nan;101716.91;2011822;29;19938;-71
2022/08/08 01:51:41;;;;;;;;;;;;;;;16.51;nan;101716.09;2020932;29;19923;-70
2022/08/08 01:53:06;;;;;;;;;;;;;;;16.52;nan;101723.19;2027884;29;19915;-70
2022/08/08 01:54:16;;;;;;;;;;;;;;;16.54;nan;101720.16;2025862;29;19919;-70
2022/08/08 01:55:36;;;;;;;;;;;;;;;16.54;nan;101720.16;2020043;29;19926;-69
2022/08/08 01:56:43;;;;;;;;;;;;;;;16.58;nan;101721.19;2021631;29;19916;-70
2022/08/08 01:57:56;;;;;;;;;;;;;;;16.59;nan;101717.38;2019373;29;19926;-69
2022/08/08 01:59:28;;;;;;;;;;;;;;;16.58;nan;101713.88;2017126;29;19916;-69
2022/08/08 02:00:38;;;;;;;;;;;;;;;16.59;nan;101709.25;1982218;29;19928;-69
2022/08/08 02:01:58;;;;;;;;;;;;;;;16.62;nan;101719.53;1989808;29;19924;-69
2022/08/08 02:03:20;;;;;;;;;;;;;;;16.62;nan;101716.81;2023759;29;19991;-70
2022/08/08 02:04:33;;;;;;;;;;;;;;;16.64;nan;101720.03;1987807;29;19988;-70
2022/08/08 02:06:11;;;;;;;;;;;;;;;16.64;nan;101715.41;2022510;29;19916;-70
2022/08/08 02:07:21;;;;;;;;;;;;;;;16.65;nan;101713.50;2026390;29;19935;-69
2022/08/08 02:08:44;;;;;;;;;;;;;;;16.66;nan;101723.25;2018278;29;19927;-70
2022/08/08 02:10:04;;;;;;;;;;;;;;;16.65;nan;101719.75;2016792;29;19927;-68
2022/08/08 02:11:13;;;;;;;;;;;;;;;16.66;nan;101718.63;2024020;29;20287;-69
2022/08/08 02:12:27;;;;;;;;;;;;;;;16.65;nan;101713.50;2026382;29;19915;-69
2022/08/08 02:13:37;;;;;;;;;;;;;;;16.64;nan;101718.09;2027843;29;19923;-68
2022/08/08 02:15:16;;;;;;;;;;;;;;;16.63;nan;101713.00;2031539;29;19919;-69
2022/08/08 02:16:26;;;;;;;;;;;;;;;16.64;nan;101717.31;2008359;29;19916;-69
2022/08/08 02:17:27;;;;;;;;;;;;;;;16.63;nan;101719.22;2029243;29;20390;-69
2022/08/08 02:18:39;;;;;;;;;;;;;;;16.63;nan;101713.00;2033592;29;19915;-68
2022/08/08 02:19:41;;;;;;;;;;;;;;;16.64;nan;101718.09;2027404;29;19919;-69
2022/08/08 02:22:31;;;;;;;;;;;;;;;16.65;nan;101721.66;1991631;29;19916;-68
2022/08/08 02:23:40;;;;;;;;;;;;;;;16.65;nan;101721.66;2026587;29;19912;-68
2022/08/08 02:24:54;;;;;;;;;;;;;;;16.64;nan;101714.59;2026490;29;19915;-69
2022/08/08 02:26:06;;;;;;;;;;;;;;;16.59;nan;101712.75;2024540;29;20352;-67
2022/08/08 02:27:17;;;;;;;;;;;;;;;16.58;nan;101716.59;2027794;29;19922;-70
2022/08/08 02:28:31;;;;;;;;;;;;;;;16.57;nan;101711.44;2033011;29;19915;-69
2022/08/08 02:29:51;;;;;;;;;;;;;;;16.58;nan;101716.59;2028011;29;19915;-69
2022/08/08 02:31:12;;;;;;;;;;;;;;;16.58;nan;101710.31;2023882;29;20268;-69
2022/08/08 02:32:14;;;;;;;;;;;;;;;16.58;nan;101716.59;2031521;29;20283;-69
2022/08/08 02:33:33;;;;;;;;;;;;;;;16.55;nan;101710.91;2041986;29;19915;-70
2022/08/08 02:34:40;;;;;;;;;;;;;;;16.55;nan;101719.03;2041664;29;19922;-70
2022/08/08 02:35:44;;;;;;;;;;;;;;;16.54;nan;101714.72;2034409;29;19921;-70
2022/08/08 02:37:00;;;;;;;;;;;;;;;16.51;nan;101709.88;2034671;29;19922;-70
2022/08/08 02:38:13;;;;;;;;;;;;;;;16.53;nan;101713.91;2033788;29;19942;-69
2022/08/08 02:39:27;;;;;;;;;;;;;;;16.49;nan;101710.19;2034159;29;20302;-70
2022/08/08 02:40:42;;;;;;;;;;;;;;;16.56;nan;101717.97;2033985;29;20294;-70
2022/08/08 02:42:05;;;;;;;;;;;;;;;16.57;nan;101719.56;2026400;29;19919;-71
2022/08/08 02:43:12;;;;;;;;;;;;;;;16.54;nan;101722.88;2021375;29;19923;-71
2022/08/08 02:44:25;;;;;;;;;;;;;;;16.54;nan;101726.38;2019100;29;19920;-71
2022/08/08 02:45:40;;;;;;;;;;;;;;;16.54;nan;101726.38;2024343;29;19919;-70
2022/08/08 02:47:09;;;;;;;;;;;;;;;16.53;nan;101724.78;2027949;29;20430;-71
2022/08/08 02:48:35;;;;;;;;;;;;;;;16.51;nan;101726.16;2033337;29;19919;-70
2022/08/08 02:49:52;;;;;;;;;;;;;;;16.47;nan;101728.66;2028698;29;20344;-71
2022/08/08 02:51:15;;;;;;;;;;;;;;;16.43;nan;101728.44;2028812;29;20291;-70
2022/08/08 02:52:18;;;;;;;;;;;;;;;16.44;nan;101719.19;2028798;29;19915;-70
2022/08/08 02:53:27;;;;;;;;;;;;;;;16.43;nan;101720.28;2034018;29;20427;-70
2022/08/08 02:54:50;;;;;;;;;;;;;;;16.47;nan;101722.41;2033901;29;19934;-70
2022/08/08 02:56:05;;;;;;;;;;;;;;;16.50;nan;101727.28;2026248;29;19919;-72
2022/08/08 02:57:25;;;;;;;;;;;;;;;16.51;nan;101720.72;2022562;29;19916;-72
2022/08/08 02:58:45;;;;;;;;;;;;;;;16.51;nan;101723.44;2027788;29;19915;-72
2022/08/08 02:59:58;;;;;;;;;;;;;;;16.51;nan;101720.72;2026086;29;19915;-72
2022/08/08 03:01:09;;;;;;;;;;;;;;;16.53;nan;101724.78;2016595;29;19915;-72
2022/08/08 03:02:28;;;;;;;;;;;;;;;16.54;nan;101720.97;2020549;29;19919;-71
2022/08/08 03:03:59;;;;;;;;;;;;;;;16.53;nan;101719.34;2020472;29;19986;-73
2022/08/08 03:05:00;;;;;;;;;;;;;;;16.53;nan;101722.06;2029496;29;19914;-72
2022/08/08 03:06:20;;;;;;;;;;;;;;;16.55;nan;101719.03;2034029;29;19915;-74
2022/08/08 03:07:42;;;;;;;;;;;;;;;16.57;nan;101719.56;2026298;29;19916;-74
2022/08/08 03:09:13;;;;;;;;;;;;;;;16.58;nan;101721.19;2021341;29;19916;-72
2022/08/08 03:10:23;;;;;;;;;;;;;;;16.59;nan;101728.25;2008209;29;19912;-70
2022/08/08 03:11:43;;;;;;;;;;;;;;;16.57;nan;101720.38;2011980;29;19923;-70
2022/08/08 03:12:50;;;;;;;;;;;;;;;16.57;nan;101719.56;2015345;29;19919;-71
2022/08/08 03:13:51;;;;;;;;;;;;;;;16.56;nan;101717.97;2019313;29;19930;-71
2022/08/08 03:15:11;;;;;;;;;;;;;;;16.56;nan;101717.97;2033785;29;19992;-71
2022/08/08 03:16:25;;;;;;;;;;;;;;;16.54;nan;101720.97;2027191;29;20388;-71
2022/08/08 03:17:36;;;;;;;;;;;;;;;16.53;nan;101724.78;2030607;29;19938;-70
2022/08/08 03:18:37;;;;;;;;;;;;;;;16.53;nan;101718.56;2041409;29;19922;-71
2022/08/08 03:19:56;;;;;;;;;;;;;;;16.50;nan;101719.94;2026349;29;20347;-70
2022/08/08 03:20:57;;;;;;;;;;;;;;;16.51;nan;101718.03;2025608;29;19919;-71
2022/08/08 03:22:01;;;;;;;;;;;;;;;16.49;nan;101714.78;2025754;29;19923;-71
2022/08/08 03:23:04;;;;;;;;;;;;;;;16.52;nan;101714.19;2033762;29;20383;-71
2022/08/08 03:24:10;;;;;;;;;;;;;;;16.53;nan;101719.34;2034048;29;20294;-71
2022/08/08 03:25:14;;;;;;;;;;;;;;;16.56;nan;101718.78;2033817;29;20379;-70
2022/08/08 03:26:25;;;;;;;;;;;;;;;16.56;nan;101723.41;2032947;29;19914;-70
2022/08/08 03:27:47;;;;;;;;;;;;;;;16.54;nan;101725.59;2034773;29;19914;-71
2022/08/08 03:29:00;;;;;;;;;;;;;;;16.54;nan;101728.31;2031447;29;19938;-70
2022/08/08 03:30:05;;;;;;;;;;;;;;;16.54;nan;101723.69;2027094;29;19922;-70
2022/08/08 03:33:52;;;;;;;;;;;;;;;16.51;nan;101723.44;2033516;29;19915;-71
2022/08/08 03:34:53;;;;;;;;;;;;;;;16.52;nan;101728.59;2033661;29;20050;-71
2022/08/08 03:35:57;;;;;;;;;;;;;;;16.52;nan;101728.59;2032894;29;19923;-71
2022/08/08 03:37:00;;;;;;;;;;;;;;;16.53;nan;101722.06;2025971;29;20296;-71
2022/08/08 03:38:02;;;;;;;;;;;;;;;16.54;nan;101722.88;2018157;29;19915;-72
2022/08/08 03:39:04;;;;;;;;;;;;;;;16.54;nan;101722.88;2018669;29;19916;-72
2022/08/08 03:40:11;;;;;;;;;;;;;;;16.53;nan;101723.97;2018038;29;19915;-72
2022/08/08 03:41:14;;;;;;;;;;;;;;;16.54;nan;101728.31;2017707;29;19925;-72
2022/08/08 03:42:16;;;;;;;;;;;;;;;16.55;nan;101733.47;2026093;29;19915;-72
2022/08/08 03:43:17;;;;;;;;;;;;;;;16.55;nan;101735.34;2025553;29;19916;-72
2022/08/08 03:44:19;;;;;;;;;;;;;;;16.54;nan;101731.81;2021712;29;19923;-72
2022/08/08 03:45:23;;;;;;;;;;;;;;;16.59;nan;101733.69;2026096;29;19915;-72
2022/08/08 03:46:27;;;;;;;;;;;;;;;16.60;nan;101738.00;2015966;29;19927;-70
2022/08/08 03:47:29;;;;;;;;;;;;;;;16.61;nan;101740.44;2018740;29;19915;-72
2022/08/08 03:48:32;;;;;;;;;;;;;;;16.66;nan;101745.00;2033587;29;19915;-73
2022/08/08 03:49:37;;;;;;;;;;;;;;;16.67;nan;101747.41;2026307;29;19916;-73
2022/08/08 03:50:48;;;;;;;;;;;;;;;16.68;nan;101745.53;2032683;29;19918;-72
2022/08/08 03:51:54;;;;;;;;;;;;;;;16.69;nan;101741.69;2027545;29;19915;-71
2022/08/08 03:53:10;;;;;;;;;;;;;;;16.65;nan;101744.19;2026501;29;19915;-72
2022/08/08 03:54:12;;;;;;;;;;;;;;;16.67;nan;101743.88;2033581;29;19918;-71
2022/08/08 03:55:15;;;;;;;;;;;;;;;16.69;nan;101744.41;2025812;29;19920;-70
2022/08/08 03:56:17;;;;;;;;;;;;;;;16.72;nan;101751.97;2033281;29;19922;-70
2022/08/08 03:57:19;;;;;;;;;;;;;;;16.73;nan;101750.88;2033618;29;19922;-70
2022/08/08 03:58:26;;;;;;;;;;;;;;;16.74;nan;101747.06;2025197;29;19923;-70
2022/08/08 03:59:34;;;;;;;;;;;;;;;16.77;nan;101749.25;2026298;29;20362;-71
2022/08/08 04:00:36;;;;;;;;;;;;;;;16.79;nan;101748.94;2041032;29;19922;-69
2022/08/08 04:01:44;;;;;;;;;;;;;;;16.79;nan;101751.66;2025242;29;19915;-68
2022/08/08 04:02:58;;;;;;;;;;;;;;;16.81;nan;101747.53;2041612;29;19914;-69
2022/08/08 04:04:02;;;;;;;;;;;;;;;16.83;nan;101748.03;2039201;29;19915;-68
2022/08/08 04:05:10;;;;;;;;;;;;;;;16.84;nan;101755.13;2026904;29;19916;-69
2022/08/08 04:06:17;;;;;;;;;;;;;;;16.84;nan;101752.41;2024335;29;20287;-68
2022/08/08 04:07:19;;;;;;;;;;;;;;;16.86;nan;101749.38;2033957;29;19915;-70
2022/08/08 04:08:21;;;;;;;;;;;;;;;16.87;nan;101751.81;2040443;29;19921;-73
2022/08/08 04:09:23;;;;;;;;;;;;;;;16.88;nan;101752.63;2041357;29;19937;-72
2022/08/08 04:10:28;;;;;;;;;;;;;;;16.88;nan;101747.19;2041333;29;19915;-73
2022/08/08 04:11:30;;;;;;;;;;;;;;;16.88;nan;101753.41;2033564;29;20370;-73
2022/08/08 04:12:32;;;;;;;;;;;;;;;16.87;nan;101749.09;2033735;29;19978;-72
2022/08/08 04:13:33;;;;;;;;;;;;;;;16.89;nan;101756.94;2033454;29;20291;-72
2022/08/08 04:14:40;;;;;;;;;;;;;;;16.91;nan;101758.28;2018702;29;19920;-72
2022/08/08 04:15:41;;;;;;;;;;;;;;;16.90;nan;101755.88;2018624;29;19923;-72
2022/08/08 04:16:44;;;;;;;;;;;;;;;16.91;nan;101755.56;2015735;29;19919;-72
2022/08/08 04:17:49;;;;;;;;;;;;;;;16.93;nan;101755.28;2016471;29;20352;-71
2022/08/08 04:18:54;;;;;;;;;;;;;;;16.92;nan;101756.38;2008920;29;19923;-70
2022/08/08 04:19:57;;;;;;;;;;;;;;;16.90;nan;101762.09;2017615;29;19915;-69
2022/08/08 04:21:02;;;;;;;;;;;;;;;16.90;nan;101761.28;2010463;29;19916;-69
2022/08/08 04:22:07;;;;;;;;;;;;;;;16.91;nan;101762.91;2018568;29;19968;-69
2022/08/08 04:23:18;;;;;;;;;;;;;;;16.91;nan;101765.63;2027385;29;20394;-69
2022/08/08 04:24:22;;;;;;;;;;;;;;;16.92;nan;101772.66;2025666;29;19923;-70
2022/08/08 04:25:28;;;;;;;;;;;;;;;16.96;nan;101781.03;2033464;29;20105;-71
2022/08/08 04:26:29;;;;;;;;;;;;;;;16.96;nan;101767.44;2040953;29;20001;-71
2022/08/08 04:27:31;;;;;;;;;;;;;;;16.95;nan;101763.94;2025763;29;19915;-69
2022/08/08 04:28:35;;;;;;;;;;;;;;;16.96;nan;101776.44;2010271;29;19924;-70
2022/08/08 04:29:36;;;;;;;;;;;;;;;16.98;nan;101767.97;2024894;29;19915;-70
2022/08/08 04:30:40;;;;;;;;;;;;;;;16.99;nan;101772.28;2026433;29;19919;-70
2022/08/08 04:31:42;;;;;;;;;;;;;;;16.97;nan;101778.03;2023777;29;20335;-70
2022/08/08 04:32:47;;;;;;;;;;;;;;;16.98;nan;101781.56;2033206;29;19915;-69
2022/08/08 04:33:49;;;;;;;;;;;;;;;17.01;nan;101783.69;2033420;29;19937;-70
2022/08/08 04:34:55;;;;;;;;;;;;;;;16.99;nan;101783.16;2033652;29;20354;-69
2022/08/08 04:35:58;;;;;;;;;;;;;;;17.00;nan;101782.09;2032471;29;19918;-69
2022/08/08 04:37:00;;;;;;;;;;;;;;;17.01;nan;101778.25;2024981;29;19916;-69
2022/08/08 04:38:02;;;;;;;;;;;;;;;16.99;nan;101780.44;2012884;29;19916;-70
2022/08/08 04:39:07;;;;;;;;;;;;;;;16.99;nan;101784.00;2019117;29;20403;-69
2022/08/08 04:40:11;;;;;;;;;;;;;;;16.99;nan;101780.44;2025489;29;19964;-70
2022/08/08 04:41:21;;;;;;;;;;;;;;;16.98;nan;101776.94;2018861;29;20315;-70
2022/08/08 04:42:24;;;;;;;;;;;;;;;16.98;nan;101778.84;2018791;29;19938;-70
2022/08/08 04:43:30;;;;;;;;;;;;;;;17.01;nan;101783.69;2017549;29;19923;-68
2022/08/08 04:44:32;;;;;;;;;;;;;;;16.99;nan;101783.16;2021366;29;19915;-70
2022/08/08 04:45:36;;;;;;;;;;;;;;;16.98;nan;101778.84;2033277;29;19915;-70
2022/08/08 04:46:39;;;;;;;;;;;;;;;16.96;nan;101783.75;2026743;29;19930;-69
2022/08/08 04:47:40;;;;;;;;;;;;;;;16.96;nan;101781.03;2026079;29;20383;-69
2022/08/08 04:48:42;;;;;;;;;;;;;;;16.97;nan;101778.03;2033148;29;19915;-70
2022/08/08 04:49:44;;;;;;;;;;;;;;;16.97;nan;101780.75;2017883;29;19916;-69
2022/08/08 04:50:46;;;;;;;;;;;;;;;16.97;nan;101779.94;2027965;29;19922;-70
2022/08/08 04:51:49;;;;;;;;;;;;;;;16.96;nan;101781.88;2021910;29;19915;-70
2022/08/08 04:52:52;;;;;;;;;;;;;;;16.97;nan;101778.03;2020752;29;19915;-70
2022/08/08 04:53:54;;;;;;;;;;;;;;;16.99;nan;101778.56;2038134;29;19915;-70
2022/08/08 04:54:58;;;;;;;;;;;;;;;17.00;nan;101782.91;2035566;29;19915;-69
2022/08/08 04:56:00;;;;;;;;;;;;;;;17.03;nan;101778.78;2029858;29;19927;-69
2022/08/08 04:57:08;;;;;;;;;;;;;;;17.04;nan;101781.19;2028289;29;19922;-69
2022/08/08 04:58:14;;;;;;;;;;;;;;;17.06;nan;101779.00;2028658;29;19918;-69
2022/08/08 04:59:18;;;;;;;;;;;;;;;17.10;nan;101781.94;2028758;29;19942;-69
2022/08/08 05:00:24;;;;;;;;;;;;;;;17.11;nan;101784.34;2029192;29;19919;-69
2022/08/08 05:01:26;;;;;;;;;;;;;;;17.14;nan;101782.97;2030076;29;19926;-69
2022/08/08 05:02:33;;;;;;;;;;;;;;;17.12;nan;101777.84;2029293;29;19919;-68
2022/08/08 05:03:34;;;;;;;;;;;;;;;17.14;nan;101785.69;2026912;29;19922;-70
2022/08/08 05:04:38;;;;;;;;;;;;;;;17.15;nan;101779.16;2020690;29;20377;-70
2022/08/08 05:05:42;;;;;;;;;;;;;;;17.16;nan;101775.34;2029672;29;19915;-70
2022/08/08 05:06:47;;;;;;;;;;;;;;;17.19;nan;101774.75;2039595;29;19914;-70
2022/08/08 05:07:51;;;;;;;;;;;;;;;17.20;nan;101770.94;2036861;29;19922;-70
2022/08/08 05:08:55;;;;;;;;;;;;;;;17.20;nan;101775.56;2033425;29;19915;-70
2022/08/08 05:10:00;;;;;;;;;;;;;;;17.22;nan;101776.09;2026149;29;20402;-69
2022/08/08 05:11:12;;;;;;;;;;;;;;;17.23;nan;101775.78;2018599;29;19916;-70
2022/08/08 05:12:16;;;;;;;;;;;;;;;17.24;nan;101782.00;2019416;29;19916;-69
2022/08/08 05:13:20;;;;;;;;;;;;;;;17.24;nan;101776.56;2025511;29;19915;-69
2022/08/08 05:14:23;;;;;;;;;;;;;;;17.23;nan;101769.53;2024428;29;19938;-73
2022/08/08 05:15:32;;;;;;;;;;;;;;;17.28;nan;101777.63;2026693;29;20240;-73
2022/08/08 05:16:33;;;;;;;;;;;;;;;17.30;nan;101781.66;2023011;29;19915;-73
2022/08/08 05:17:35;;;;;;;;;;;;;;;17.32;nan;101782.16;2025484;29;19926;-73
2022/08/08 05:18:39;;;;;;;;;;;;;;;17.33;nan;101786.50;2018593;29;20352;-72
2022/08/08 05:19:43;;;;;;;;;;;;;;;17.35;nan;101786.22;2020176;29;19915;-72
2022/08/08 05:20:49;;;;;;;;;;;;;;;17.36;nan;101785.91;2034794;29;19915;-76
2022/08/08 05:21:54;;;;;;;;;;;;;;;17.38;nan;101782.91;2025407;29;19919;-72
2022/08/08 05:22:56;;;;;;;;;;;;;;;17.39;nan;101781.81;2025329;29;19915;-71
2022/08/08 05:24:04;;;;;;;;;;;;;;;17.41;nan;101784.25;2024222;29;19919;-69
2022/08/08 05:25:08;;;;;;;;;;;;;;;17.42;nan;101783.13;2025121;29;20411;-68
2022/08/08 05:26:12;;;;;;;;;;;;;;;17.45;nan;101782.53;2038559;29;19918;-70
2022/08/08 05:27:14;;;;;;;;;;;;;;;17.47;nan;101785.78;2040785;29;19925;-69
2022/08/08 05:28:18;;;;;;;;;;;;;;;17.48;nan;101781.94;2033179;29;19919;-68
2022/08/08 05:29:20;;;;;;;;;;;;;;;17.52;nan;101791.94;2032878;29;19919;-68
2022/08/08 05:30:21;;;;;;;;;;;;;;;17.54;nan;101784.28;2033096;29;19923;-68
2022/08/08 05:31:23;;;;;;;;;;;;;;;17.59;nan;101783.41;2033301;29;19998;-69
2022/08/08 05:32:28;;;;;;;;;;;;;;;17.64;nan;101782.53;2015655;29;20636;-70
2022/08/08 05:33:32;;;;;;;;;;;;;;;17.70;nan;101786.78;2027158;29;19919;-68
2022/08/08 05:34:39;;;;;;;;;;;;;;;17.75;nan;101787.50;2025710;29;20037;-68
2022/08/08 05:35:42;;;;;;;;;;;;;;;17.81;nan;101790.97;2010178;29;19947;-67
2022/08/08 05:36:46;;;;;;;;;;;;;;;17.86;nan;101790.88;2025046;29;19923;-68
2022/08/08 05:37:53;;;;;;;;;;;;;;;17.91;nan;101790.00;2025230;29;19923;-69
2022/08/08 05:38:57;;;;;;;;;;;;;;;17.98;nan;101795.88;2020715;29;19916;-68
2022/08/08 05:40:03;;;;;;;;;;;;;;;18.04;nan;101794.69;2024594;29;19985;-69
2022/08/08 05:41:09;;;;;;;;;;;;;;;18.10;nan;101798.13;2017691;29;20296;-68
2022/08/08 05:42:13;;;;;;;;;;;;;;;18.16;nan;101797.75;2019021;29;19923;-68
2022/08/08 05:43:22;;;;;;;;;;;;;;;18.24;nan;101797.03;2024020;29;19915;-69
2022/08/08 05:44:28;;;;;;;;;;;;;;;18.30;nan;101798.56;2032130;29;20517;-68
2022/08/08 05:45:35;;;;;;;;;;;;;;;18.35;nan;101797.66;2024561;29;19915;-69
2022/08/08 05:46:37;;;;;;;;;;;;;;;18.39;nan;101801.41;2016352;29;19919;-69
2022/08/08 05:47:40;;;;;;;;;;;;;;;18.45;nan;101799.38;2015599;29;19924;-70
2022/08/08 05:48:42;;;;;;;;;;;;;;;18.49;nan;101797.66;2025141;29;19939;-69
2022/08/08 05:49:48;;;;;;;;;;;;;;;18.52;nan;101799.78;2024652;29;20548;-70
2022/08/08 05:50:54;;;;;;;;;;;;;;;18.58;nan;101800.50;2009805;29;19927;-67
2022/08/08 05:51:56;;;;;;;;;;;;;;;18.61;nan;101803.44;2017571;29;20269;-69
2022/08/08 05:53:00;;;;;;;;;;;;;;;18.64;nan;101802.81;2016630;29;20323;-68
2022/08/08 05:54:04;;;;;;;;;;;;;;;18.68;nan;101797.56;2009369;29;19954;-69
2022/08/08 05:55:10;;;;;;;;;;;;;;;18.69;nan;101799.97;2004223;29;19991;-69
2022/08/08 05:56:16;;;;;;;;;;;;;;;18.71;nan;101802.41;2018095;29;19931;-70
2022/08/08 05:57:23;;;;;;;;;;;;;;;18.71;nan;101803.22;2017115;29;19932;-69
2022/08/08 05:58:29;;;;;;;;;;;;;;;18.68;nan;101805.75;2024484;29;20367;-68
2022/08/08 05:59:32;;;;;;;;;;;;;;;18.66;nan;101806.06;2024013;29;19919;-67
2022/08/08 06:00:36;;;;;;;;;;;;;;;18.64;nan;101805.53;2015915;29;19920;-67
2022/08/08 06:01:41;;;;;;;;;;;;;;;18.61;nan;101806.16;2016625;29;19927;-68
2022/08/08 06:04:12;;;;;;;;;;;;;;;18.58;nan;101808.69;2019253;29;20391;-69
2022/08/08 06:05:16;;;;;;;;;;;;;;;18.55;nan;101799.19;2009477;29;19920;-69
2022/08/08 06:06:18;;;;;;;;;;;;;;;18.52;nan;101799.78;2016776;29;19944;-69
2022/08/08 06:07:21;;;;;;;;;;;;;;;18.52;nan;101802.50;2032128;29;19919;-68
2022/08/08 06:08:34;;;;;;;;;;;;;;;18.52;nan;101799.78;2032279;29;20544;-68
2022/08/08 06:09:41;;;;;;;;;;;;;;;18.53;nan;101806.84;2025555;29;19919;-69
2022/08/08 06:10:47;;;;;;;;;;;;;;;18.54;nan;101805.75;2032832;29;19919;-69
2022/08/08 06:12:00;;;;;;;;;;;;;;;18.55;nan;101810.09;2032674;29;19934;-70